sensor_id;sensor_type;location;lat;lon;timestamp;temperature;humidity
69901;DHT22;57183;50.930;5.406;2023-03-01T00:02:20;1.00;99.90
69901;DHT22;57183;50.930;5.406;2023-03-01T00:04:46;0.90;99.90
69901;DHT22;57183;50.930;5.406;2023-03-01T00:07:12;0.90;99.90
69901;DHT22;57183;50.930;5.406;2023-03-01T00:09:38;0.90;99.90
69901;DHT22;57183;50.930;5.406;2023-03-01T00:12:06;0.80;99.90
69901;DHT22;57183;50.930;5.406;2023-03-01T00:14:32;0.70;99.90
69901;DHT22;57183;50.930;5.406;2023-03-01T00:16:58;0.60;99.90
69901;DHT22;57183;50.930;5.406;2023-03-01T00:19:23;0.50;99.90
69901;DHT22;57183;50.930;5.406;2023-03-01T00:21:49;0.50;99.90
69901;DHT22;57183;50.930;5.406;2023-03-01T00:24:15;0.40;99.90
69901;DHT22;57183;50.930;5.406;2023-03-01T00:26:41;0.30;99.90
69901;DHT22;57183;50.930;5.406;2023-03-01T00:29:07;0.30;99.90
69901;DHT22;57183;50.930;5.406;2023-03-01T00:31:33;0.20;99.90
69901;DHT22;57183;50.930;5.406;2023-03-01T00:34:00;0.20;99.90
69901;DHT22;57183;50.930;5.406;2023-03-01T00:36:32;0.40;99.90
69901;DHT22;57183;50.930;5.406;2023-03-01T00:38:58;0.20;99.90
69901;DHT22;57183;50.930;5.406;2023-03-01T00:41:24;0.00;99.90
69901;DHT22;57183;50.930;5.406;2023-03-01T00:43:52;0.00;99.90
69901;DHT22;57183;50.930;5.406;2023-03-01T00:46:20;0.00;99.90
69901;DHT22;57183;50.930;5.406;2023-03-01T00:48:47;0.00;99.90
69901;DHT22;57183;50.930;5.406;2023-03-01T00:51:19;0.00;99.90
69901;DHT22;57183;50.930;5.406;2023-03-01T00:53:46;-0.10;99.90
69901;DHT22;57183;50.930;5.406;2023-03-01T00:56:13;-0.20;99.90
69901;DHT22;57183;50.930;5.406;2023-03-01T00:58:40;0.00;99.90
69901;DHT22;57183;50.930;5.406;2023-03-01T01:01:21;-0.20;99.90
69901;DHT22;57183;50.930;5.406;2023-03-01T01:06:43;-0.10;99.90
69901;DHT22;57183;50.930;5.406;2023-03-01T01:09:12;-0.10;99.90
69901;DHT22;57183;50.930;5.406;2023-03-01T01:11:45;-0.10;99.90
69901;DHT22;57183;50.930;5.406;2023-03-01T01:14:11;-0.10;99.90
69901;DHT22;57183;50.930;5.406;2023-03-01T01:16:37;-0.10;99.90
69901;DHT22;57183;50.930;5.406;2023-03-01T01:19:03;-0.20;99.90
69901;DHT22;57183;50.930;5.406;2023-03-01T01:21:29;-0.20;99.90
69901;DHT22;57183;50.930;5.406;2023-03-01T01:23:55;-0.20;99.90
69901;DHT22;57183;50.930;5.406;2023-03-01T01:26:30;-0.10;99.90
69901;DHT22;57183;50.930;5.406;2023-03-01T01:28:57;-0.20;99.90
69901;DHT22;57183;50.930;5.406;2023-03-01T01:31:23;-0.20;99.90
69901;DHT22;57183;50.930;5.406;2023-03-01T01:33:50;-0.40;99.90
69901;DHT22;57183;50.930;5.406;2023-03-01T01:36:16;-0.20;99.90
69901;DHT22;57183;50.930;5.406;2023-03-01T01:38:42;-0.40;99.90
69901;DHT22;57183;50.930;5.406;2023-03-01T01:41:09;-0.30;99.90
69901;DHT22;57183;50.930;5.406;2023-03-01T01:43:45;-0.30;99.90
69901;DHT22;57183;50.930;5.406;2023-03-01T01:46:31;-0.30;99.90
69901;DHT22;57183;50.930;5.406;2023-03-01T01:49:06;-0.40;99.90
69901;DHT22;57183;50.930;5.406;2023-03-01T01:51:38;-0.50;99.90
69901;DHT22;57183;50.930;5.406;2023-03-01T01:54:10;-0.50;99.90
69901;DHT22;57183;50.930;5.406;2023-03-01T01:56:38;-0.40;99.90
69901;DHT22;57183;50.930;5.406;2023-03-01T01:59:04;-0.30;99.90
69901;DHT22;57183;50.930;5.406;2023-03-01T02:01:30;-0.40;99.90
69901;DHT22;57183;50.930;5.406;2023-03-01T02:03:56;-0.40;99.90
69901;DHT22;57183;50.930;5.406;2023-03-01T02:06:29;-0.50;99.90
69901;DHT22;57183;50.930;5.406;2023-03-01T02:09:06;-0.40;99.90
69901;DHT22;57183;50.930;5.406;2023-03-01T02:11:33;-0.40;99.90
69901;DHT22;57183;50.930;5.406;2023-03-01T02:14:00;-0.40;99.90
69901;DHT22;57183;50.930;5.406;2023-03-01T02:16:26;-0.30;99.90
69901;DHT22;57183;50.930;5.406;2023-03-01T02:18:52;-0.30;99.90
69901;DHT22;57183;50.930;5.406;2023-03-01T02:24:09;-0.40;99.90
69901;DHT22;57183;50.930;5.406;2023-03-01T02:26:45;-0.50;99.90
69901;DHT22;57183;50.930;5.406;2023-03-01T02:29:12;-0.60;99.90
69901;DHT22;57183;50.930;5.406;2023-03-01T02:31:38;-0.40;99.90
69901;DHT22;57183;50.930;5.406;2023-03-01T02:34:15;-0.50;99.90
69901;DHT22;57183;50.930;5.406;2023-03-01T02:36:56;-0.40;99.90
69901;DHT22;57183;50.930;5.406;2023-03-01T02:39:39;-0.50;99.90
69901;DHT22;57183;50.930;5.406;2023-03-01T02:42:12;-0.50;99.90
69901;DHT22;57183;50.930;5.406;2023-03-01T02:44:38;-0.70;99.90
69901;DHT22;57183;50.930;5.406;2023-03-01T02:47:04;-0.50;99.90
69901;DHT22;57183;50.930;5.406;2023-03-01T02:49:34;-0.60;99.90
69901;DHT22;57183;50.930;5.406;2023-03-01T02:55:01;-0.70;99.90
69901;DHT22;57183;50.930;5.406;2023-03-01T02:57:28;-0.90;99.90
69901;DHT22;57183;50.930;5.406;2023-03-01T02:59:56;-1.00;99.90
69901;DHT22;57183;50.930;5.406;2023-03-01T03:02:28;-1.00;99.90
69901;DHT22;57183;50.930;5.406;2023-03-01T03:05:06;-1.00;99.90
69901;DHT22;57183;50.930;5.406;2023-03-01T03:07:36;-1.00;99.90
69901;DHT22;57183;50.930;5.406;2023-03-01T03:10:03;-1.10;99.90
69901;DHT22;57183;50.930;5.406;2023-03-01T03:12:29;-1.10;99.90
69901;DHT22;57183;50.930;5.406;2023-03-01T03:14:58;-1.10;99.90
69901;DHT22;57183;50.930;5.406;2023-03-01T03:17:23;-1.00;99.90
69901;DHT22;57183;50.930;5.406;2023-03-01T03:19:49;-0.80;99.90
69901;DHT22;57183;50.930;5.406;2023-03-01T03:22:15;-0.70;99.90
69901;DHT22;57183;50.930;5.406;2023-03-01T03:24:41;-0.90;99.90
69901;DHT22;57183;50.930;5.406;2023-03-01T03:27:07;-0.90;99.90
69901;DHT22;57183;50.930;5.406;2023-03-01T03:29:33;-0.90;99.90
69901;DHT22;57183;50.930;5.406;2023-03-01T03:31:59;-1.00;99.90
69901;DHT22;57183;50.930;5.406;2023-03-01T03:34:28;-0.80;99.90
69901;DHT22;57183;50.930;5.406;2023-03-01T03:36:55;-0.90;99.90
69901;DHT22;57183;50.930;5.406;2023-03-01T03:39:26;-0.90;99.90
69901;DHT22;57183;50.930;5.406;2023-03-01T03:41:53;-0.70;99.90
69901;DHT22;57183;50.930;5.406;2023-03-01T03:44:19;-0.80;99.90
69901;DHT22;57183;50.930;5.406;2023-03-01T03:46:45;-0.60;99.90
69901;DHT22;57183;50.930;5.406;2023-03-01T03:49:11;-0.90;99.90
69901;DHT22;57183;50.930;5.406;2023-03-01T03:51:37;-1.00;99.90
69901;DHT22;57183;50.930;5.406;2023-03-01T03:54:02;-0.80;99.90
69901;DHT22;57183;50.930;5.406;2023-03-01T03:56:31;-0.90;99.90
69901;DHT22;57183;50.930;5.406;2023-03-01T03:58:57;-0.70;99.90
69901;DHT22;57183;50.930;5.406;2023-03-01T04:01:23;-0.80;99.90
69901;DHT22;57183;50.930;5.406;2023-03-01T04:03:48;-0.80;99.90
69901;DHT22;57183;50.930;5.406;2023-03-01T04:06:20;-0.90;99.90
69901;DHT22;57183;50.930;5.406;2023-03-01T04:08:46;-0.80;99.90
69901;DHT22;57183;50.930;5.406;2023-03-01T04:11:11;-0.70;99.90
69901;DHT22;57183;50.930;5.406;2023-03-01T04:13:57;-0.80;99.90
69901;DHT22;57183;50.930;5.406;2023-03-01T04:16:23;-0.80;99.90
69901;DHT22;57183;50.930;5.406;2023-03-01T04:19:06;-0.50;99.90
69901;DHT22;57183;50.930;5.406;2023-03-01T04:21:32;-0.60;99.90
69901;DHT22;57183;50.930;5.406;2023-03-01T04:23:58;-0.50;99.90
69901;DHT22;57183;50.930;5.406;2023-03-01T04:26:23;-0.60;99.90
69901;DHT22;57183;50.930;5.406;2023-03-01T04:28:49;-0.60;99.90
69901;DHT22;57183;50.930;5.406;2023-03-01T04:31:17;-0.40;99.90
69901;DHT22;57183;50.930;5.406;2023-03-01T04:33:48;-0.40;99.90
69901;DHT22;57183;50.930;5.406;2023-03-01T04:36:18;-0.50;99.90
69901;DHT22;57183;50.930;5.406;2023-03-01T04:38:44;-0.50;99.90
69901;DHT22;57183;50.930;5.406;2023-03-01T04:41:14;-0.40;99.90
69901;DHT22;57183;50.930;5.406;2023-03-01T04:43:40;-0.50;99.90
69901;DHT22;57183;50.930;5.406;2023-03-01T04:46:08;-0.30;99.90
69901;DHT22;57183;50.930;5.406;2023-03-01T04:48:37;-0.30;99.90
69901;DHT22;57183;50.930;5.406;2023-03-01T04:51:04;-0.20;99.90
69901;DHT22;57183;50.930;5.406;2023-03-01T04:53:30;-0.30;99.90
69901;DHT22;57183;50.930;5.406;2023-03-01T04:55:56;-0.40;99.90
69901;DHT22;57183;50.930;5.406;2023-03-01T04:58:26;-0.50;99.90
69901;DHT22;57183;50.930;5.406;2023-03-01T05:00:53;-0.70;99.90
69901;DHT22;57183;50.930;5.406;2023-03-01T05:03:19;-0.80;99.90
69901;DHT22;57183;50.930;5.406;2023-03-01T05:05:46;-0.70;99.90
69901;DHT22;57183;50.930;5.406;2023-03-01T05:08:13;-0.70;99.90
69901;DHT22;57183;50.930;5.406;2023-03-01T05:10:50;-0.90;99.90
69901;DHT22;57183;50.930;5.406;2023-03-01T05:13:17;-0.70;99.90
69901;DHT22;57183;50.930;5.406;2023-03-01T05:15:56;-0.70;99.90
69901;DHT22;57183;50.930;5.406;2023-03-01T05:18:23;-0.80;99.90
69901;DHT22;57183;50.930;5.406;2023-03-01T05:20:55;-0.50;99.90
69901;DHT22;57183;50.930;5.406;2023-03-01T05:23:24;-0.70;99.90
69901;DHT22;57183;50.930;5.406;2023-03-01T05:25:50;-0.70;99.90
69901;DHT22;57183;50.930;5.406;2023-03-01T05:28:19;-0.90;99.90
69901;DHT22;57183;50.930;5.406;2023-03-01T05:30:45;-0.70;99.90
69901;DHT22;57183;50.930;5.406;2023-03-01T05:33:11;-0.90;99.90
69901;DHT22;57183;50.930;5.406;2023-03-01T05:35:42;-1.10;99.90
69901;DHT22;57183;50.930;5.406;2023-03-01T05:38:09;-1.00;99.90
69901;DHT22;57183;50.930;5.406;2023-03-01T05:40:39;-1.10;99.90
69901;DHT22;57183;50.930;5.406;2023-03-01T05:43:05;-1.00;99.90
69901;DHT22;57183;50.930;5.406;2023-03-01T05:45:31;-0.90;99.90
69901;DHT22;57183;50.930;5.406;2023-03-01T05:48:00;-1.00;99.90
69901;DHT22;57183;50.930;5.406;2023-03-01T05:50:28;-0.90;99.90
69901;DHT22;57183;50.930;5.406;2023-03-01T05:53:05;-1.10;99.90
69901;DHT22;57183;50.930;5.406;2023-03-01T05:55:31;-1.20;99.90
69901;DHT22;57183;50.930;5.406;2023-03-01T05:58:03;-1.20;99.90
69901;DHT22;57183;50.930;5.406;2023-03-01T06:00:30;-1.20;99.90
69901;DHT22;57183;50.930;5.406;2023-03-01T06:02:57;-1.20;99.90
69901;DHT22;57183;50.930;5.406;2023-03-01T06:05:23;-1.10;99.90
69901;DHT22;57183;50.930;5.406;2023-03-01T06:07:52;-1.00;99.90
69901;DHT22;57183;50.930;5.406;2023-03-01T06:10:19;-1.00;99.90
69901;DHT22;57183;50.930;5.406;2023-03-01T06:12:46;-1.00;99.90
69901;DHT22;57183;50.930;5.406;2023-03-01T06:15:13;-1.00;99.90
69901;DHT22;57183;50.930;5.406;2023-03-01T06:17:41;-1.10;99.90
69901;DHT22;57183;50.930;5.406;2023-03-01T06:20:18;-1.20;99.90
69901;DHT22;57183;50.930;5.406;2023-03-01T06:22:46;-1.30;99.90
69901;DHT22;57183;50.930;5.406;2023-03-01T06:25:14;-1.20;99.90
69901;DHT22;57183;50.930;5.406;2023-03-01T06:27:41;-0.90;99.90
69901;DHT22;57183;50.930;5.406;2023-03-01T06:30:09;-1.00;99.90
69901;DHT22;57183;50.930;5.406;2023-03-01T06:32:36;-1.00;99.90
69901;DHT22;57183;50.930;5.406;2023-03-01T06:35:04;-1.00;99.90
69901;DHT22;57183;50.930;5.406;2023-03-01T06:37:29;-1.30;99.90
69901;DHT22;57183;50.930;5.406;2023-03-01T06:39:55;-1.30;99.90
69901;DHT22;57183;50.930;5.406;2023-03-01T06:42:21;-1.30;99.90
69901;DHT22;57183;50.930;5.406;2023-03-01T06:44:46;-1.30;99.90
69901;DHT22;57183;50.930;5.406;2023-03-01T06:47:12;-1.30;99.90
69901;DHT22;57183;50.930;5.406;2023-03-01T06:49:38;-1.20;99.90
69901;DHT22;57183;50.930;5.406;2023-03-01T06:52:04;-1.30;99.90
69901;DHT22;57183;50.930;5.406;2023-03-01T06:54:29;-1.30;99.90
69901;DHT22;57183;50.930;5.406;2023-03-01T06:56:55;-1.20;99.90
69901;DHT22;57183;50.930;5.406;2023-03-01T06:59:21;-1.00;99.90
69901;DHT22;57183;50.930;5.406;2023-03-01T07:01:46;-1.00;99.90
69901;DHT22;57183;50.930;5.406;2023-03-01T07:04:13;-1.10;99.90
69901;DHT22;57183;50.930;5.406;2023-03-01T07:06:39;-1.10;99.90
69901;DHT22;57183;50.930;5.406;2023-03-01T07:09:05;-1.00;99.90
69901;DHT22;57183;50.930;5.406;2023-03-01T07:11:32;-0.80;99.90
69901;DHT22;57183;50.930;5.406;2023-03-01T07:13:58;-0.50;99.90
69901;DHT22;57183;50.930;5.406;2023-03-01T07:16:25;-0.50;99.90
69901;DHT22;57183;50.930;5.406;2023-03-01T07:18:51;-0.60;99.90
69901;DHT22;57183;50.930;5.406;2023-03-01T07:21:17;-0.60;99.90
69901;DHT22;57183;50.930;5.406;2023-03-01T07:23:42;-0.60;99.90
69901;DHT22;57183;50.930;5.406;2023-03-01T07:26:08;-0.50;99.90
69901;DHT22;57183;50.930;5.406;2023-03-01T07:28:34;-0.50;99.90
69901;DHT22;57183;50.930;5.406;2023-03-01T07:31:02;-0.20;99.90
69901;DHT22;57183;50.930;5.406;2023-03-01T07:33:28;0.20;99.90
69901;DHT22;57183;50.930;5.406;2023-03-01T07:35:58;0.40;99.90
69901;DHT22;57183;50.930;5.406;2023-03-01T07:38:24;0.60;99.90
69901;DHT22;57183;50.930;5.406;2023-03-01T07:40:50;1.00;99.90
69901;DHT22;57183;50.930;5.406;2023-03-01T07:43:15;1.00;99.90
69901;DHT22;57183;50.930;5.406;2023-03-01T07:45:41;0.90;99.90
69901;DHT22;57183;50.930;5.406;2023-03-01T07:48:06;0.90;99.90
69901;DHT22;57183;50.930;5.406;2023-03-01T07:50:32;1.00;99.90
69901;DHT22;57183;50.930;5.406;2023-03-01T07:52:58;1.10;99.90
69901;DHT22;57183;50.930;5.406;2023-03-01T07:55:23;1.20;99.90
69901;DHT22;57183;50.930;5.406;2023-03-01T07:57:49;1.50;99.90
69901;DHT22;57183;50.930;5.406;2023-03-01T08:00:15;1.30;99.90
69901;DHT22;57183;50.930;5.406;2023-03-01T08:02:41;1.50;99.90
69901;DHT22;57183;50.930;5.406;2023-03-01T08:05:08;1.40;99.90
69901;DHT22;57183;50.930;5.406;2023-03-01T08:07:35;1.60;99.90
69901;DHT22;57183;50.930;5.406;2023-03-01T08:10:01;1.80;99.90
69901;DHT22;57183;50.930;5.406;2023-03-01T08:12:26;1.60;99.90
69901;DHT22;57183;50.930;5.406;2023-03-01T08:14:53;1.80;99.90
69901;DHT22;57183;50.930;5.406;2023-03-01T08:17:19;1.70;99.90
69901;DHT22;57183;50.930;5.406;2023-03-01T08:19:45;1.80;99.90
69901;DHT22;57183;50.930;5.406;2023-03-01T08:22:11;2.00;99.90
69901;DHT22;57183;50.930;5.406;2023-03-01T08:24:37;2.00;99.90
69901;DHT22;57183;50.930;5.406;2023-03-01T08:27:02;2.10;99.90
69901;DHT22;57183;50.930;5.406;2023-03-01T08:29:30;2.10;99.90
69901;DHT22;57183;50.930;5.406;2023-03-01T08:31:56;1.90;99.90
69901;DHT22;57183;50.930;5.406;2023-03-01T08:34:22;2.10;99.90
69901;DHT22;57183;50.930;5.406;2023-03-01T08:36:48;2.10;99.90
69901;DHT22;57183;50.930;5.406;2023-03-01T08:39:17;1.90;99.90
69901;DHT22;57183;50.930;5.406;2023-03-01T08:41:43;1.80;99.90
69901;DHT22;57183;50.930;5.406;2023-03-01T08:44:10;1.70;99.90
69901;DHT22;57183;50.930;5.406;2023-03-01T08:46:38;2.10;99.90
69901;DHT22;57183;50.930;5.406;2023-03-01T08:49:07;2.40;99.90
69901;DHT22;57183;50.930;5.406;2023-03-01T08:51:33;2.50;99.90
69901;DHT22;57183;50.930;5.406;2023-03-01T08:54:06;2.80;99.90
69901;DHT22;57183;50.930;5.406;2023-03-01T08:56:33;2.80;99.90
69901;DHT22;57183;50.930;5.406;2023-03-01T08:58:59;2.80;99.90
69901;DHT22;57183;50.930;5.406;2023-03-01T09:01:25;2.70;99.90
69901;DHT22;57183;50.930;5.406;2023-03-01T09:03:50;2.90;99.90
69901;DHT22;57183;50.930;5.406;2023-03-01T09:06:16;3.10;99.90
69901;DHT22;57183;50.930;5.406;2023-03-01T09:08:45;3.00;99.90
69901;DHT22;57183;50.930;5.406;2023-03-01T09:11:13;2.90;99.90
69901;DHT22;57183;50.930;5.406;2023-03-01T09:13:39;3.30;99.90
69901;DHT22;57183;50.930;5.406;2023-03-01T09:16:06;3.50;99.90
69901;DHT22;57183;50.930;5.406;2023-03-01T09:18:34;3.30;99.90
69901;DHT22;57183;50.930;5.406;2023-03-01T09:21:03;3.40;99.90
69901;DHT22;57183;50.930;5.406;2023-03-01T09:23:33;3.50;99.90
69901;DHT22;57183;50.930;5.406;2023-03-01T09:26:00;3.40;99.90
69901;DHT22;57183;50.930;5.406;2023-03-01T09:28:26;3.50;99.90
69901;DHT22;57183;50.930;5.406;2023-03-01T09:30:51;3.90;99.90
69901;DHT22;57183;50.930;5.406;2023-03-01T09:33:17;4.10;99.90
69901;DHT22;57183;50.930;5.406;2023-03-01T09:35:43;4.10;99.90
69901;DHT22;57183;50.930;5.406;2023-03-01T09:38:13;4.20;99.90
69901;DHT22;57183;50.930;5.406;2023-03-01T09:40:43;4.40;99.90
69901;DHT22;57183;50.930;5.406;2023-03-01T09:43:18;4.40;99.90
69901;DHT22;57183;50.930;5.406;2023-03-01T09:45:47;4.30;99.90
69901;DHT22;57183;50.930;5.406;2023-03-01T09:48:21;4.10;99.90
69901;DHT22;57183;50.930;5.406;2023-03-01T09:50:50;4.00;99.90
69901;DHT22;57183;50.930;5.406;2023-03-01T09:56:00;4.00;99.90
69901;DHT22;57183;50.930;5.406;2023-03-01T10:04:35;4.20;99.90
69901;DHT22;57183;50.930;5.406;2023-03-01T10:07:21;4.40;99.90
69901;DHT22;57183;50.930;5.406;2023-03-01T10:09:52;4.60;99.90
69901;DHT22;57183;50.930;5.406;2023-03-01T10:12:25;4.90;99.90
69901;DHT22;57183;50.930;5.406;2023-03-01T10:15:16;5.10;99.90
69901;DHT22;57183;50.930;5.406;2023-03-01T10:17:55;5.20;99.90
69901;DHT22;57183;50.930;5.406;2023-03-01T10:20:30;5.10;99.90
69901;DHT22;57183;50.930;5.406;2023-03-01T10:22:58;5.20;99.90
69901;DHT22;57183;50.930;5.406;2023-03-01T10:28:35;5.00;99.90
69901;DHT22;57183;50.930;5.406;2023-03-01T10:31:04;5.00;99.90
69901;DHT22;57183;50.930;5.406;2023-03-01T10:33:32;5.00;99.90
69901;DHT22;57183;50.930;5.406;2023-03-01T10:36:01;5.00;99.90
69901;DHT22;57183;50.930;5.406;2023-03-01T10:38:30;5.10;99.90
69901;DHT22;57183;50.930;5.406;2023-03-01T10:41:15;5.30;99.90
69901;DHT22;57183;50.930;5.406;2023-03-01T10:43:49;5.50;99.90
69901;DHT22;57183;50.930;5.406;2023-03-01T10:46:29;5.40;99.90
69901;DHT22;57183;50.930;5.406;2023-03-01T10:51:30;5.10;99.90
69901;DHT22;57183;50.930;5.406;2023-03-01T10:53:56;5.00;99.90
69901;DHT22;57183;50.930;5.406;2023-03-01T10:56:21;5.20;99.90
69901;DHT22;57183;50.930;5.406;2023-03-01T10:58:59;5.40;99.90
69901;DHT22;57183;50.930;5.406;2023-03-01T11:01:27;5.60;99.90
69901;DHT22;57183;50.930;5.406;2023-03-01T11:04:11;5.80;99.90
69901;DHT22;57183;50.930;5.406;2023-03-01T11:06:39;5.70;99.90
69901;DHT22;57183;50.930;5.406;2023-03-01T11:09:21;5.70;99.90
69901;DHT22;57183;50.930;5.406;2023-03-01T11:11:56;5.60;99.90
69901;DHT22;57183;50.930;5.406;2023-03-01T11:14:24;5.60;99.90
69901;DHT22;57183;50.930;5.406;2023-03-01T11:17:17;5.70;99.90
69901;DHT22;57183;50.930;5.406;2023-03-01T11:19:43;5.70;99.90
69901;DHT22;57183;50.930;5.406;2023-03-01T11:22:24;5.80;99.90
69901;DHT22;57183;50.930;5.406;2023-03-01T11:24:52;5.80;99.90
69901;DHT22;57183;50.930;5.406;2023-03-01T11:27:24;5.80;99.90
69901;DHT22;57183;50.930;5.406;2023-03-01T11:33:03;6.00;99.90
69901;DHT22;57183;50.930;5.406;2023-03-01T11:35:29;5.90;99.90
69901;DHT22;57183;50.930;5.406;2023-03-01T11:38:02;5.90;99.90
69901;DHT22;57183;50.930;5.406;2023-03-01T11:40:39;5.90;99.90
69901;DHT22;57183;50.930;5.406;2023-03-01T12:03:27;6.30;99.90
69901;DHT22;57183;50.930;5.406;2023-03-01T12:06:00;6.40;99.90
69901;DHT22;57183;50.930;5.406;2023-03-01T12:09:02;6.50;99.90
69901;DHT22;57183;50.930;5.406;2023-03-01T12:22:35;6.20;99.90
69901;DHT22;57183;50.930;5.406;2023-03-01T12:25:16;6.30;99.90
69901;DHT22;57183;50.930;5.406;2023-03-01T12:27:55;6.30;99.90
69901;DHT22;57183;50.930;5.406;2023-03-01T12:30:46;6.60;99.90
69901;DHT22;57183;50.930;5.406;2023-03-01T12:33:19;6.80;99.90
69901;DHT22;57183;50.930;5.406;2023-03-01T12:49:45;7.00;99.90
69901;DHT22;57183;50.930;5.406;2023-03-01T12:52:29;6.80;98.70
69901;DHT22;57183;50.930;5.406;2023-03-01T12:54:58;6.90;98.20
69901;DHT22;57183;50.930;5.406;2023-03-01T12:57:31;6.70;97.20
69901;DHT22;57183;50.930;5.406;2023-03-01T13:00:16;6.70;99.00
69901;DHT22;57183;50.930;5.406;2023-03-01T13:02:50;6.70;98.90
69901;DHT22;57183;50.930;5.406;2023-03-01T13:05:41;6.80;98.70
69901;DHT22;57183;50.930;5.406;2023-03-01T13:08:22;6.90;98.70
69901;DHT22;57183;50.930;5.406;2023-03-01T13:11:05;7.00;98.60
69901;DHT22;57183;50.930;5.406;2023-03-01T13:13:31;7.10;98.00
69901;DHT22;57183;50.930;5.406;2023-03-01T13:15:58;7.20;99.20
69901;DHT22;57183;50.930;5.406;2023-03-01T13:18:43;7.20;99.90
69901;DHT22;57183;50.930;5.406;2023-03-01T13:21:09;7.20;97.90
69901;DHT22;57183;50.930;5.406;2023-03-01T13:23:37;7.20;97.50
69901;DHT22;57183;50.930;5.406;2023-03-01T13:28:41;7.20;98.30
69901;DHT22;57183;50.930;5.406;2023-03-01T13:33:47;7.30;97.00
69901;DHT22;57183;50.930;5.406;2023-03-01T13:39:31;7.20;97.00
69901;DHT22;57183;50.930;5.406;2023-03-01T13:42:25;7.20;96.20
69901;DHT22;57183;50.930;5.406;2023-03-01T13:44:49;7.20;96.40
69901;DHT22;57183;50.930;5.406;2023-03-01T13:47:17;7.30;97.00
69901;DHT22;57183;50.930;5.406;2023-03-01T13:49:50;7.20;95.60
69901;DHT22;57183;50.930;5.406;2023-03-01T13:52:47;7.10;96.00
69901;DHT22;57183;50.930;5.406;2023-03-01T13:57:41;7.20;96.50
69901;DHT22;57183;50.930;5.406;2023-03-01T14:00:25;7.40;96.60
69901;DHT22;57183;50.930;5.406;2023-03-01T14:03:17;7.40;96.20
69901;DHT22;57183;50.930;5.406;2023-03-01T14:08:29;7.40;97.10
69901;DHT22;57183;50.930;5.406;2023-03-01T14:11:27;7.50;97.10
69901;DHT22;57183;50.930;5.406;2023-03-01T14:19:15;7.70;95.50
69901;DHT22;57183;50.930;5.406;2023-03-01T14:21:46;7.60;94.50
69901;DHT22;57183;50.930;5.406;2023-03-01T14:24:20;7.70;95.10
69901;DHT22;57183;50.930;5.406;2023-03-01T14:26:47;7.60;95.30
69901;DHT22;57183;50.930;5.406;2023-03-01T14:29:35;7.50;94.50
69901;DHT22;57183;50.930;5.406;2023-03-01T14:32:27;7.50;94.80
69901;DHT22;57183;50.930;5.406;2023-03-01T14:34:53;7.50;93.50
69901;DHT22;57183;50.930;5.406;2023-03-01T14:37:33;7.40;94.40
69901;DHT22;57183;50.930;5.406;2023-03-01T14:40:00;7.50;93.70
69901;DHT22;57183;50.930;5.406;2023-03-01T14:42:29;7.60;93.90
69901;DHT22;57183;50.930;5.406;2023-03-01T14:44:57;7.60;93.30
69901;DHT22;57183;50.930;5.406;2023-03-01T14:47:41;7.70;93.30
69901;DHT22;57183;50.930;5.406;2023-03-01T14:50:09;7.60;93.80
69901;DHT22;57183;50.930;5.406;2023-03-01T14:52:42;7.70;93.10
69901;DHT22;57183;50.930;5.406;2023-03-01T14:55:21;7.80;94.10
69901;DHT22;57183;50.930;5.406;2023-03-01T14:57:49;8.00;93.30
69901;DHT22;57183;50.930;5.406;2023-03-01T15:00:22;8.10;93.90
69901;DHT22;57183;50.930;5.406;2023-03-01T15:02:51;8.00;92.90
69901;DHT22;57183;50.930;5.406;2023-03-01T15:05:27;8.10;92.20
69901;DHT22;57183;50.930;5.406;2023-03-01T15:07:55;8.10;92.00
69901;DHT22;57183;50.930;5.406;2023-03-01T15:10:28;8.10;92.80
69901;DHT22;57183;50.930;5.406;2023-03-01T15:12:56;8.30;94.10
69901;DHT22;57183;50.930;5.406;2023-03-01T15:15:34;8.50;93.60
69901;DHT22;57183;50.930;5.406;2023-03-01T15:18:03;10.00;93.00
69901;DHT22;57183;50.930;5.406;2023-03-01T15:20:30;10.70;87.40
69901;DHT22;57183;50.930;5.406;2023-03-01T15:23:01;11.20;86.60
69901;DHT22;57183;50.930;5.406;2023-03-01T15:25:28;11.40;85.20
69901;DHT22;57183;50.930;5.406;2023-03-01T15:27:56;11.20;83.50
69901;DHT22;57183;50.930;5.406;2023-03-01T15:30:31;11.10;81.20
69901;DHT22;57183;50.930;5.406;2023-03-01T15:35:51;11.20;82.10
69901;DHT22;57183;50.930;5.406;2023-03-01T15:41:02;10.90;80.10
69901;DHT22;57183;50.930;5.406;2023-03-01T15:44:03;10.60;78.50
69901;DHT22;57183;50.930;5.406;2023-03-01T15:46:39;10.60;79.70
69901;DHT22;57183;50.930;5.406;2023-03-01T15:49:51;10.70;79.50
69901;DHT22;57183;50.930;5.406;2023-03-01T15:52:34;11.10;81.20
69901;DHT22;57183;50.930;5.406;2023-03-01T15:55:03;11.10;80.00
69901;DHT22;57183;50.930;5.406;2023-03-01T15:57:29;10.70;80.10
69901;DHT22;57183;50.930;5.406;2023-03-01T15:59:55;11.00;79.60
69901;DHT22;57183;50.930;5.406;2023-03-01T16:02:22;11.00;78.80
69901;DHT22;57183;50.930;5.406;2023-03-01T16:04:48;11.20;76.60
69901;DHT22;57183;50.930;5.406;2023-03-01T16:07:14;10.90;78.60
69901;DHT22;57183;50.930;5.406;2023-03-01T16:09:40;11.10;79.60
69901;DHT22;57183;50.930;5.406;2023-03-01T16:12:13;11.50;77.40
69901;DHT22;57183;50.930;5.406;2023-03-01T16:14:39;11.20;75.70
69901;DHT22;57183;50.930;5.406;2023-03-01T16:17:05;11.00;76.70
69901;DHT22;57183;50.930;5.406;2023-03-01T16:19:33;10.70;78.10
69901;DHT22;57183;50.930;5.406;2023-03-01T16:21:58;10.70;78.50
69901;DHT22;57183;50.930;5.406;2023-03-01T16:24:24;10.70;78.70
69901;DHT22;57183;50.930;5.406;2023-03-01T16:26:51;10.30;80.10
69901;DHT22;57183;50.930;5.406;2023-03-01T16:29:17;10.10;81.40
69901;DHT22;57183;50.930;5.406;2023-03-01T16:31:42;10.40;78.30
69901;DHT22;57183;50.930;5.406;2023-03-01T16:34:08;9.80;80.10
69901;DHT22;57183;50.930;5.406;2023-03-01T16:36:34;9.80;81.10
69901;DHT22;57183;50.930;5.406;2023-03-01T16:39:00;9.60;82.70
69901;DHT22;57183;50.930;5.406;2023-03-01T16:41:27;9.10;85.90
69901;DHT22;57183;50.930;5.406;2023-03-01T16:43:53;8.80;85.30
69901;DHT22;57183;50.930;5.406;2023-03-01T16:46:21;8.30;86.40
69901;DHT22;57183;50.930;5.406;2023-03-01T16:48:48;8.20;90.10
69901;DHT22;57183;50.930;5.406;2023-03-01T16:51:14;8.30;89.20
69901;DHT22;57183;50.930;5.406;2023-03-01T16:53:41;8.10;90.70
69901;DHT22;57183;50.930;5.406;2023-03-01T16:56:09;7.90;90.20
69901;DHT22;57183;50.930;5.406;2023-03-01T16:58:39;7.60;90.90
69901;DHT22;57183;50.930;5.406;2023-03-01T17:01:07;7.30;92.30
69901;DHT22;57183;50.930;5.406;2023-03-01T17:03:34;7.30;93.10
69901;DHT22;57183;50.930;5.406;2023-03-01T17:06:08;7.20;92.40
69901;DHT22;57183;50.930;5.406;2023-03-01T17:08:35;7.10;93.40
69901;DHT22;57183;50.930;5.406;2023-03-01T17:11:13;6.90;94.60
69901;DHT22;57183;50.930;5.406;2023-03-01T17:13:39;6.80;93.90
69901;DHT22;57183;50.930;5.406;2023-03-01T17:16:07;6.60;94.50
69901;DHT22;57183;50.930;5.406;2023-03-01T17:18:33;6.60;95.20
69901;DHT22;57183;50.930;5.406;2023-03-01T17:21:00;6.50;94.90
69901;DHT22;57183;50.930;5.406;2023-03-01T17:23:28;6.40;95.30
69901;DHT22;57183;50.930;5.406;2023-03-01T17:25:54;6.40;95.80
69901;DHT22;57183;50.930;5.406;2023-03-01T17:28:21;6.30;96.50
69901;DHT22;57183;50.930;5.406;2023-03-01T17:30:48;6.20;96.00